Aeroporto :
LOGIN :

Iscrizione | Disclaimer

   EN    FR    IT 

 










Sommario :    VFR   VFR Marginale   IFR   IFR Intensivo   IFR Molto Intensivo
Visibilità : 
Base nubi : 
>= 8 km
>= 3000ft
5 / 8 km
1000 / 3000 ft
1500m / 5 km
500 / 1000 ft
800 / 1500m
200 / 500 ft
< 800m
< 200 ft
Simboli :   Temporali  Nebbia  Neve Forte  Precipitazioni Forti  Vento > 20 kt
SIGMETs :   Varie  Temporali  Ghiacco  Turbolenza  Onda orograficha  Ceneri Vulcaniche







- Altitudine del aeroporto : 26 ft
- Codice IATA : BIA
- Carte del aeroporto


LFKB - Bastia

ULTIMO METAR :
  • 160830Z AUTO 21005KT CAVOK 11/03 Q1030 NOSIG

METARs OBSOLETI :
  • 160800Z AUTO 21008KT CAVOK 09/01 Q1031 NOSIG
  • 160730Z AUTO 20003KT 170V230 CAVOK 07/01 Q1030 NOSIG
  • 160700Z AUTO VRB02KT CAVOK 07/M00 Q1030 NOSIG
  • 160630Z AUTO 22003KT CAVOK 05/M00 Q1030 NOSIG
  • 160600Z AUTO 23004KT CAVOK 04/00 Q1029 NOSIG

TAF TAF LFKB
Valido dal 16 a 09 ore il 17 a 09 ore UTC


160800Z 1609/1709 21005KT CAVOK TX16/1613Z TN04/1705Z
TEMPO 1610/1616 01010KT
ATIS : +33 4 95 59 19 40
Nessun NOTAM noto per questo aeroporto.



MetMap, La meteo Aeronautica in un colpo d'occhio ! - Copyright ORBIFLY Dicembre 2007 - Disclaimer

ORBIFLY MET'MAP TEAM :

Programmazione e sviluppo : Alexandra Zaïnal
Concezione e sviluppo : Baudouin d'Aumeries
Co-Programmazione e sviluppo : Marc-Olivier Méhu
Supporto tecnico e logistico : Manuel Goepfert
Aiuto per la traduzione : Arnaldo La Scala

Contatto : metmap@orbifly.com




FONTI E CREDITI :

   NOAA